createdAt,value
2022-09-22T00:00:40.441Z,7.66
2022-09-22T00:03:06.828Z,7.66
2022-09-22T00:05:33.274Z,7.66
2022-09-22T00:08:00.360Z,7.68
2022-09-22T00:10:26.756Z,7.67
2022-09-22T00:12:53.185Z,7.66
2022-09-22T00:15:19.551Z,7.67
2022-09-22T00:17:45.984Z,7.64
2022-09-22T00:20:12.871Z,7.59
2022-09-22T00:22:40.728Z,7.55
2022-09-22T00:25:08.696Z,7.59
2022-09-22T00:27:35.703Z,7.56
2022-09-22T00:30:02.167Z,7.54
2022-09-22T00:32:28.574Z,7.55
2022-09-22T00:34:54.994Z,7.52
2022-09-22T00:37:21.380Z,7.57
2022-09-22T00:39:48.080Z,7.50
2022-09-22T00:42:14.436Z,7.54
2022-09-22T00:44:42.584Z,7.52
2022-09-22T00:47:16.874Z,7.51
2022-09-22T00:49:53.632Z,7.49
2022-09-22T00:52:25.455Z,7.45
2022-09-22T00:54:56.503Z,7.46
2022-09-22T00:57:28.144Z,7.48
2022-09-22T00:59:55.189Z,7.48
2022-09-22T01:02:22.546Z,7.45
2022-09-22T01:04:51.255Z,7.43
2022-09-22T01:07:20.920Z,7.44
2022-09-22T01:09:47.432Z,7.41
2022-09-22T01:12:14.012Z,7.42
2022-09-22T01:14:58.635Z,7.39
2022-09-22T01:17:49.553Z,7.31
2022-09-22T01:20:18.864Z,7.24
2022-09-22T01:23:03.642Z,7.24
2022-09-22T01:25:52.061Z,7.21
2022-09-22T01:28:56.008Z,7.14
2022-09-22T01:31:32.379Z,7.10
2022-09-22T01:34:08.007Z,7.06
2022-09-22T01:36:53.669Z,7.04
2022-09-22T01:39:41.672Z,7.01
2022-09-22T01:42:15.170Z,7.00
2022-09-22T01:44:52.561Z,6.98
2022-09-22T01:47:27.986Z,6.99
2022-09-22T01:50:00.693Z,6.99
2022-09-22T01:52:31.093Z,7.01
2022-09-22T01:55:09.109Z,7.00
2022-09-22T01:57:51.184Z,6.98
2022-09-22T02:00:18.457Z,6.98
2022-09-22T02:03:17.831Z,7.01
2022-09-22T02:05:59.053Z,6.99
2022-09-22T02:08:37.528Z,6.98
2022-09-22T02:11:13.072Z,6.97
2022-09-22T02:13:41.392Z,6.93
2022-09-22T02:16:08.975Z,6.89
2022-09-22T02:18:53.422Z,6.94
2022-09-22T02:21:21.089Z,6.92
2022-09-22T02:23:48.886Z,6.84
2022-09-22T02:26:20.397Z,6.86
2022-09-22T02:28:46.942Z,6.83
2022-09-22T02:31:21.744Z,6.81
2022-09-22T02:33:49.608Z,6.79
2022-09-22T02:36:53.624Z,6.73
2022-09-22T02:39:28.897Z,6.69
2022-09-22T02:42:01.524Z,6.66
2022-09-22T02:44:41.581Z,6.66
2022-09-22T02:47:12.857Z,6.70
2022-09-22T02:49:41.476Z,6.69
2022-09-22T02:52:12.856Z,6.74
2022-09-22T02:54:39.543Z,6.72
2022-09-22T02:57:07.400Z,6.69
2022-09-22T02:59:33.742Z,6.67
2022-09-22T03:02:00.196Z,6.63
2022-09-22T03:04:27.166Z,6.66
2022-09-22T03:06:53.564Z,6.61
2022-09-22T03:09:19.958Z,6.63
2022-09-22T03:11:46.354Z,6.65
2022-09-22T03:14:12.725Z,6.62
2022-09-22T03:16:39.121Z,6.61
2022-09-22T03:19:05.547Z,6.57
2022-09-22T03:21:31.984Z,6.58
2022-09-22T03:23:58.438Z,6.60
2022-09-22T03:26:24.839Z,6.61
2022-09-22T03:28:51.245Z,6.58
2022-09-22T03:31:17.942Z,6.58
2022-09-22T03:33:45.724Z,6.58
2022-09-22T03:36:13.653Z,6.55
2022-09-22T03:38:40.188Z,6.54
2022-09-22T03:41:06.587Z,6.51
2022-09-22T03:43:32.968Z,6.48
2022-09-22T03:46:01.627Z,6.49
2022-09-22T03:48:29.198Z,6.46
2022-09-22T03:50:56.135Z,6.41
2022-09-22T03:53:23.500Z,6.42
2022-09-22T03:55:50.844Z,6.38
2022-09-22T03:58:18.112Z,6.40
2022-09-22T04:00:44.597Z,6.39
2022-09-22T04:03:11.012Z,6.43
2022-09-22T04:05:37.716Z,6.45
2022-09-22T04:08:05.481Z,6.47
2022-09-22T04:10:31.940Z,6.43
2022-09-22T04:12:58.310Z,6.41
2022-09-22T04:15:24.790Z,6.43
2022-09-22T04:17:51.224Z,6.38
2022-09-22T04:20:17.760Z,6.43
2022-09-22T04:22:44.128Z,6.44
2022-09-22T04:25:10.645Z,6.47
2022-09-22T04:27:37.101Z,6.46
2022-09-22T04:30:03.712Z,6.49
2022-09-22T04:32:30.079Z,6.45
2022-09-22T04:34:56.445Z,6.46
2022-09-22T04:37:23.026Z,6.43
2022-09-22T04:39:49.383Z,6.38
2022-09-22T04:42:15.770Z,6.34
2022-09-22T04:44:42.190Z,6.29
2022-09-22T04:47:08.538Z,6.28
2022-09-22T04:49:34.968Z,6.27
2022-09-22T04:52:01.600Z,6.23
2022-09-22T04:54:27.958Z,6.24
2022-09-22T04:56:54.325Z,6.24
2022-09-22T04:59:20.712Z,6.22
2022-09-22T05:01:47.245Z,6.22
2022-09-22T05:04:13.837Z,6.27
2022-09-22T05:06:40.360Z,6.27
2022-09-22T05:09:06.806Z,6.28
2022-09-22T05:11:33.296Z,6.28
2022-09-22T05:13:59.687Z,6.28
2022-09-22T05:16:26.155Z,6.30
2022-09-22T05:18:52.645Z,6.35
2022-09-22T05:21:19.404Z,6.35
2022-09-22T05:23:46.811Z,6.37
2022-09-22T05:26:13.278Z,6.41
2022-09-22T05:28:39.749Z,6.41
2022-09-22T05:31:06.404Z,6.44
2022-09-22T05:33:32.816Z,6.48
2022-09-22T05:35:59.266Z,6.51
2022-09-22T05:38:25.639Z,6.52
2022-09-22T05:40:52.046Z,6.61
2022-09-22T05:43:18.514Z,6.64
2022-09-22T05:45:44.959Z,6.70
2022-09-22T05:48:11.695Z,6.82
2022-09-22T05:50:38.175Z,6.86
2022-09-22T05:53:06.545Z,6.95
2022-09-22T05:55:33.511Z,6.99
2022-09-22T05:58:00.311Z,7.08
2022-09-22T06:00:30.747Z,7.14
2022-09-22T06:02:57.389Z,7.22
2022-09-22T06:05:24.402Z,7.32
2022-09-22T06:07:59.775Z,7.42
2022-09-22T06:10:29.508Z,7.51
2022-09-22T06:13:03.203Z,7.62
2022-09-22T06:15:30.064Z,7.69
2022-09-22T06:17:56.721Z,7.78
2022-09-22T06:20:23.336Z,7.94
2022-09-22T06:22:49.958Z,8.03
2022-09-22T06:25:16.718Z,8.11
2022-09-22T06:27:43.220Z,8.24
2022-09-22T06:30:10.788Z,8.39
2022-09-22T06:32:38.381Z,8.51
2022-09-22T06:35:07.544Z,8.58
2022-09-22T06:37:37.081Z,8.63
2022-09-22T06:40:04.104Z,8.69
2022-09-22T06:42:33.128Z,8.83
2022-09-22T06:45:00.947Z,8.92
2022-09-22T06:47:30.421Z,9.06
2022-09-22T06:49:56.899Z,9.26
2022-09-22T06:52:29.593Z,9.36
2022-09-22T06:55:00.427Z,9.47
2022-09-22T06:57:37.068Z,9.67
2022-09-22T07:00:12.326Z,9.83
2022-09-22T07:02:43.804Z,9.97
2022-09-22T07:05:12.404Z,10.12
2022-09-22T07:07:38.908Z,10.07
2022-09-22T07:10:06.018Z,10.28
2022-09-22T07:12:34.898Z,10.41
2022-09-22T07:15:01.410Z,10.55
2022-09-22T07:17:27.894Z,10.80
2022-09-22T07:19:54.342Z,10.87
2022-09-22T07:22:20.989Z,11.04
2022-09-22T07:24:51.696Z,11.25
2022-09-22T07:27:18.172Z,11.45
2022-09-22T07:29:46.829Z,11.63
2022-09-22T07:32:14.402Z,11.76
2022-09-22T07:34:40.784Z,11.83
2022-09-22T07:37:07.338Z,11.95
2022-09-22T07:39:33.947Z,12.07
2022-09-22T07:42:02.578Z,12.13
2022-09-22T07:44:30.139Z,12.19
2022-09-22T07:46:56.585Z,12.22
2022-09-22T07:49:22.998Z,12.33
2022-09-22T07:51:49.919Z,12.45
2022-09-22T07:54:16.360Z,12.54
2022-09-22T07:56:46.768Z,12.68
2022-09-22T07:59:14.668Z,12.77
2022-09-22T08:01:43.766Z,12.88
2022-09-22T08:04:19.862Z,13.00
2022-09-22T08:06:50.572Z,13.17
2022-09-22T08:09:17.310Z,13.28
2022-09-22T08:11:50.593Z,13.38
2022-09-22T08:14:28.134Z,13.43
2022-09-22T08:17:00.166Z,13.56
2022-09-22T08:19:35.091Z,13.76
2022-09-22T08:22:30.187Z,13.93
2022-09-22T08:25:13.118Z,13.99
2022-09-22T08:27:39.602Z,14.08
2022-09-22T08:30:19.611Z,14.07
2022-09-22T08:32:49.852Z,14.27
2022-09-22T08:35:21.896Z,14.47
2022-09-22T08:37:51.937Z,14.54
2022-09-22T08:40:24.502Z,14.66
2022-09-22T08:42:57.957Z,14.81
2022-09-22T08:45:34.868Z,14.98
2022-09-22T08:48:26.947Z,15.12
2022-09-22T08:51:11.368Z,15.32
2022-09-22T08:53:43.237Z,15.37
2022-09-22T08:56:33.274Z,15.53
2022-09-22T08:59:11.178Z,15.67
2022-09-22T09:02:02.836Z,15.74
2022-09-22T09:04:48.118Z,15.80
2022-09-22T09:07:29.251Z,15.84
2022-09-22T09:10:11.840Z,15.98
2022-09-22T09:13:11.037Z,16.11
2022-09-22T09:15:58.051Z,16.14
2022-09-22T09:18:37.824Z,16.26
2022-09-22T09:21:11.156Z,16.49
2022-09-22T09:26:34.342Z,24.51
2022-09-22T09:31:52.580Z,30.49
2022-09-22T09:34:24.271Z,32.25
2022-09-22T09:37:03.355Z,32.11
2022-09-22T09:39:34.024Z,32.27
2022-09-22T09:42:05.058Z,32.53
2022-09-22T09:44:57.424Z,33.18
2022-09-22T09:47:35.246Z,33.53
2022-09-22T09:50:04.541Z,34.05
2022-09-22T09:52:38.303Z,35.03
2022-09-22T09:55:26.659Z,35.32
2022-09-22T09:58:05.313Z,35.13
2022-09-22T10:00:52.851Z,35.23
2022-09-22T10:03:29.473Z,34.91
2022-09-22T10:06:22.468Z,33.73
2022-09-22T10:08:53.222Z,32.66
2022-09-22T10:12:01.301Z,33.16
2022-09-22T10:14:19.427Z,33.84
2022-09-22T10:16:56.424Z,33.97
2022-09-22T10:20:11.944Z,34.15
2022-09-22T10:22:48.006Z,34.04
2022-09-22T10:25:45.898Z,33.55
2022-09-22T10:28:17.679Z,32.97
2022-09-22T10:31:10.941Z,32.89
2022-09-22T10:34:01.993Z,33.65
2022-09-22T10:36:33.171Z,33.37
2022-09-22T10:39:08.408Z,34.21
2022-09-22T10:41:51.329Z,33.94
2022-09-22T10:44:38.413Z,32.42
2022-09-22T10:47:06.346Z,33.13
2022-09-22T10:50:02.136Z,33.43
2022-09-22T10:52:45.660Z,33.70
2022-09-22T10:55:35.663Z,33.16
2022-09-22T10:58:07.110Z,33.54
2022-09-22T11:00:39.433Z,33.09
2022-09-22T11:03:52.789Z,33.27
2022-09-22T11:06:40.656Z,33.07
2022-09-22T11:09:24.856Z,32.86
2022-09-22T11:12:12.427Z,33.12
2022-09-22T11:14:54.561Z,32.03
2022-09-22T11:17:45.240Z,30.99
2022-09-22T11:20:33.158Z,31.38
2022-09-22T11:23:08.781Z,31.79
2022-09-22T11:25:47.491Z,31.79
2022-09-22T11:28:41.559Z,30.60
2022-09-22T11:31:18.378Z,29.80
2022-09-22T11:33:59.620Z,29.38
2022-09-22T11:36:41.359Z,28.00
2022-09-22T11:39:14.234Z,28.01
2022-09-22T11:41:55.482Z,28.54
2022-09-22T11:44:42.944Z,28.17
2022-09-22T11:47:32.229Z,28.35
2022-09-22T11:50:23.405Z,27.19
2022-09-22T11:53:23.196Z,25.81
2022-09-22T11:56:13.918Z,23.95
2022-09-22T11:58:42.268Z,24.70
2022-09-22T12:01:13.742Z,24.85
2022-09-22T12:03:50.759Z,23.95
2022-09-22T12:06:22.377Z,23.25
2022-09-22T12:09:02.965Z,22.83
2022-09-22T12:11:33.182Z,22.02
2022-09-22T12:13:59.638Z,22.02
2022-09-22T12:16:39.180Z,22.00
2022-09-22T12:19:29.648Z,22.14
2022-09-22T12:22:10.659Z,21.51
2022-09-22T12:24:37.125Z,21.30
2022-09-22T12:27:20.705Z,21.47
2022-09-22T12:29:55.463Z,21.59
2022-09-22T12:32:51.480Z,21.82
2022-09-22T12:35:31.084Z,21.53
2022-09-22T12:38:01.863Z,21.71
2022-09-22T12:40:35.630Z,21.58
2022-09-22T12:43:03.811Z,21.69
2022-09-22T12:45:36.278Z,21.62
2022-09-22T12:48:29.587Z,21.28
2022-09-22T12:51:34.888Z,20.99
2022-09-22T12:54:22.676Z,20.97
2022-09-22T12:57:20.521Z,21.22
2022-09-22T13:00:05.349Z,21.24
2022-09-22T13:02:40.079Z,21.47
2022-09-22T13:05:06.527Z,21.53
2022-09-22T13:07:42.787Z,21.20
2022-09-22T13:10:21.282Z,20.99
2022-09-22T13:13:02.946Z,21.22
2022-09-22T13:15:44.783Z,21.34
2022-09-22T13:18:29.694Z,21.00
2022-09-22T13:20:57.855Z,20.98
2022-09-22T13:23:25.666Z,20.96
2022-09-22T13:25:56.416Z,20.81
2022-09-22T13:28:25.027Z,21.06
2022-09-22T13:31:11.886Z,21.36
2022-09-22T13:33:38.554Z,21.14
2022-09-22T13:36:17.627Z,21.38
2022-09-22T13:38:54.172Z,21.37
2022-09-22T13:41:29.955Z,21.17
2022-09-22T13:44:10.580Z,20.95
2022-09-22T13:46:42.868Z,20.15
2022-09-22T13:49:43.421Z,19.90
2022-09-22T13:52:16.399Z,20.08
2022-09-22T13:54:47.990Z,20.45
2022-09-22T13:57:35.650Z,20.25
2022-09-22T14:00:02.211Z,20.48
2022-09-22T14:02:31.891Z,20.48
2022-09-22T14:05:08.857Z,20.53
2022-09-22T14:07:49.669Z,20.55
2022-09-22T14:10:25.383Z,20.62
2022-09-22T14:12:51.762Z,20.79
2022-09-22T14:15:38.461Z,20.96
2022-09-22T14:18:17.737Z,20.87
2022-09-22T14:20:45.165Z,20.82
2022-09-22T14:23:22.508Z,20.88
2022-09-22T14:25:49.129Z,21.07
2022-09-22T14:28:26.438Z,20.96
2022-09-22T14:30:56.123Z,21.12
2022-09-22T14:33:27.813Z,20.76
2022-09-22T14:36:06.777Z,20.95
2022-09-22T14:38:41.879Z,20.96
2022-09-22T14:41:30.059Z,21.00
2022-09-22T14:43:56.449Z,21.08
2022-09-22T14:46:29.126Z,21.25
2022-09-22T14:48:55.837Z,21.26
2022-09-22T14:51:25.157Z,21.31
2022-09-22T14:53:57.410Z,21.01
2022-09-22T14:56:29.127Z,20.92
2022-09-22T14:58:59.092Z,20.90
2022-09-22T15:01:31.143Z,21.05
2022-09-22T15:04:02.270Z,20.90
2022-09-22T15:06:39.332Z,20.79
2022-09-22T15:09:08.203Z,20.85
2022-09-22T15:11:49.867Z,20.91
2022-09-22T15:14:34.464Z,21.05
2022-09-22T15:17:02.131Z,20.87
2022-09-22T15:19:28.491Z,20.65
2022-09-22T15:21:55.010Z,20.47
2022-09-22T15:24:29.762Z,20.27
2022-09-22T15:26:58.838Z,20.28
2022-09-22T15:29:25.269Z,20.68
2022-09-22T15:31:51.676Z,21.40
2022-09-22T15:34:18.163Z,21.93
2022-09-22T15:36:46.433Z,21.99
2022-09-22T15:39:21.775Z,21.52
2022-09-22T15:41:48.432Z,21.19
2022-09-22T15:44:14.873Z,21.33
2022-09-22T15:46:42.610Z,21.63
2022-09-22T15:49:18.654Z,22.22
2022-09-22T15:51:50.292Z,22.70
2022-09-22T15:54:20.496Z,22.92
2022-09-22T15:56:50.604Z,23.30
2022-09-22T15:59:49.515Z,23.71
2022-09-22T16:02:16.260Z,24.03
2022-09-22T16:04:56.001Z,24.11
2022-09-22T16:07:27.940Z,24.22
2022-09-22T16:09:56.638Z,24.14
2022-09-22T16:12:27.414Z,23.94
2022-09-22T16:14:54.020Z,23.20
2022-09-22T16:17:27.152Z,22.48
2022-09-22T16:20:06.422Z,21.98
2022-09-22T16:22:34.413Z,21.52
2022-09-22T16:25:04.577Z,21.22
2022-09-22T16:27:33.339Z,21.00
2022-09-22T16:30:04.759Z,20.70
2022-09-22T16:32:33.898Z,20.37
2022-09-22T16:35:02.633Z,20.09
2022-09-22T16:37:30.412Z,19.78
2022-09-22T16:39:57.047Z,19.49
2022-09-22T16:42:27.526Z,19.27
2022-09-22T16:44:55.184Z,18.93
2022-09-22T16:47:21.910Z,18.71
2022-09-22T16:49:52.567Z,18.43
2022-09-22T16:52:22.362Z,18.16
2022-09-22T16:54:51.134Z,17.94
2022-09-22T16:57:21.699Z,17.66
2022-09-22T16:59:48.361Z,17.43
2022-09-22T17:02:21.107Z,17.21
2022-09-22T17:04:47.735Z,16.99
2022-09-22T17:07:17.907Z,16.83
2022-09-22T17:09:51.527Z,16.65
2022-09-22T17:12:22.567Z,16.45
2022-09-22T17:14:52.927Z,16.24
2022-09-22T17:17:19.535Z,16.09
2022-09-22T17:19:48.456Z,15.98
2022-09-22T17:22:16.123Z,15.79
2022-09-22T17:24:42.521Z,15.63
2022-09-22T17:27:08.986Z,15.53
2022-09-22T17:29:35.328Z,15.41
2022-09-22T17:32:08.137Z,15.31
2022-09-22T17:34:48.752Z,15.18
2022-09-22T17:37:21.161Z,15.04
2022-09-22T17:39:47.627Z,14.94
2022-09-22T17:42:14.099Z,14.83
2022-09-22T17:44:42.602Z,14.71
2022-09-22T17:47:13.312Z,14.76
2022-09-22T17:49:40.445Z,15.09
2022-09-22T17:52:10.703Z,14.84
2022-09-22T17:55:04.476Z,14.61
2022-09-22T17:57:32.676Z,14.59
2022-09-22T17:59:59.693Z,14.56
2022-09-22T18:02:29.033Z,14.46
2022-09-22T18:04:59.393Z,14.32
2022-09-22T18:07:26.869Z,14.22
2022-09-22T18:09:54.062Z,14.08
2022-09-22T18:12:22.755Z,13.97
2022-09-22T18:14:53.107Z,13.87
2022-09-22T18:17:24.796Z,13.74
2022-09-22T18:19:57.089Z,13.66
2022-09-22T18:22:25.074Z,13.56
2022-09-22T18:24:53.715Z,13.49
2022-09-22T18:27:22.990Z,13.45
2022-09-22T18:29:49.731Z,13.37
2022-09-22T18:32:18.363Z,13.31
2022-09-22T18:34:45.140Z,13.23
2022-09-22T18:37:11.677Z,13.20
2022-09-22T18:39:53.564Z,13.14
2022-09-22T18:42:22.382Z,13.45
2022-09-22T18:44:52.732Z,13.31
2022-09-22T18:47:22.366Z,13.16
2022-09-22T18:49:48.953Z,13.06
2022-09-22T18:52:15.884Z,12.97
2022-09-22T18:54:42.571Z,12.88
2022-09-22T18:57:10.203Z,12.86
2022-09-22T18:59:38.978Z,12.82
2022-09-22T19:02:11.302Z,12.85
2022-09-22T19:04:40.300Z,12.78
2022-09-22T19:07:06.962Z,12.73
2022-09-22T19:09:35.002Z,12.73
2022-09-22T19:12:02.202Z,12.72
2022-09-22T19:14:28.736Z,12.65
2022-09-22T19:16:57.659Z,12.61
2022-09-22T19:19:26.158Z,12.55
2022-09-22T19:21:52.670Z,12.50
2022-09-22T19:24:21.344Z,12.48
2022-09-22T19:26:47.985Z,12.46
2022-09-22T19:29:16.480Z,12.44
2022-09-22T19:31:45.207Z,12.35
2022-09-22T19:34:12.522Z,12.28
2022-09-22T19:36:40.352Z,12.24
2022-09-22T19:39:08.399Z,12.20
2022-09-22T19:41:39.251Z,12.23
2022-09-22T19:44:05.976Z,12.20
2022-09-22T19:46:32.693Z,12.18
2022-09-22T19:48:59.137Z,12.16
2022-09-22T19:51:25.718Z,12.13
2022-09-22T19:53:52.082Z,12.10
2022-09-22T19:56:18.465Z,12.04
2022-09-22T19:58:44.884Z,12.02
2022-09-22T20:01:32.615Z,11.98
2022-09-22T20:03:59.438Z,11.97
2022-09-22T20:06:27.352Z,12.00
2022-09-22T20:08:55.990Z,12.00
2022-09-22T20:11:26.708Z,12.03
2022-09-22T20:13:53.248Z,12.01
2022-09-22T20:16:19.708Z,12.04
2022-09-22T20:18:47.187Z,11.99
2022-09-22T20:21:14.616Z,11.99
2022-09-22T20:23:41.116Z,11.95
2022-09-22T20:26:09.520Z,11.96
2022-09-22T20:28:35.905Z,11.89
2022-09-22T20:31:02.382Z,11.88
2022-09-22T20:33:29.964Z,11.89
2022-09-22T20:35:57.806Z,11.82
2022-09-22T20:38:24.212Z,11.82
2022-09-22T20:40:50.692Z,11.79
2022-09-22T20:43:18.401Z,11.82
2022-09-22T20:45:47.186Z,11.84
2022-09-22T20:48:17.780Z,11.84
2022-09-22T20:50:45.557Z,11.73
2022-09-22T20:53:11.987Z,11.67
2022-09-22T20:55:38.984Z,11.68
2022-09-22T20:58:05.632Z,11.60
2022-09-22T21:00:31.986Z,11.59
2022-09-22T21:02:59.011Z,11.55
2022-09-22T21:05:25.542Z,11.52
2022-09-22T21:07:51.967Z,11.51
2022-09-22T21:10:18.432Z,11.45
2022-09-22T21:12:44.915Z,11.50
2022-09-22T21:15:11.671Z,11.47
2022-09-22T21:17:40.990Z,11.40
2022-09-22T21:20:09.784Z,11.37
2022-09-22T21:22:36.217Z,11.35
2022-09-22T21:25:02.777Z,11.35
2022-09-22T21:27:29.184Z,11.27
2022-09-22T21:29:55.580Z,11.19
2022-09-22T21:32:21.952Z,11.13
2022-09-22T21:34:48.306Z,11.11
2022-09-22T21:37:14.761Z,11.09
2022-09-22T21:39:41.186Z,11.08
2022-09-22T21:42:07.609Z,11.04
2022-09-22T21:44:33.998Z,11.05
2022-09-22T21:47:01.613Z,11.12
2022-09-22T21:49:28.025Z,11.08
2022-09-22T21:51:54.524Z,11.04
2022-09-22T21:54:20.916Z,11.05
2022-09-22T21:56:47.477Z,11.02
2022-09-22T21:59:14.225Z,11.01
2022-09-22T22:01:41.133Z,11.01
2022-09-22T22:04:08.183Z,10.98
2022-09-22T22:06:38.091Z,10.94
2022-09-22T22:09:15.864Z,10.92
2022-09-22T22:11:48.192Z,10.87
2022-09-22T22:14:16.723Z,10.87
2022-09-22T22:16:45.367Z,10.85
2022-09-22T22:19:16.851Z,10.81
2022-09-22T22:21:44.089Z,10.75
2022-09-22T22:24:12.496Z,10.76
2022-09-22T22:26:38.897Z,10.70
2022-09-22T22:29:05.329Z,10.73
2022-09-22T22:31:31.761Z,10.67
2022-09-22T22:33:58.210Z,10.63
2022-09-22T22:36:24.557Z,10.62
2022-09-22T22:38:52.239Z,10.56
2022-09-22T22:41:18.605Z,10.57
2022-09-22T22:43:44.973Z,10.55
2022-09-22T22:46:12.425Z,10.50
2022-09-22T22:48:38.883Z,10.59
2022-09-22T22:51:12.482Z,10.56
2022-09-22T22:53:38.892Z,10.48
2022-09-22T22:56:07.998Z,10.48
2022-09-22T22:58:36.035Z,10.50
2022-09-22T23:01:12.220Z,10.45
2022-09-22T23:03:40.842Z,10.40
2022-09-22T23:06:14.077Z,10.43
2022-09-22T23:08:41.788Z,10.47
2022-09-22T23:11:28.876Z,10.47
2022-09-22T23:13:57.691Z,10.44
2022-09-22T23:16:26.638Z,10.37
2022-09-22T23:18:53.201Z,10.38
2022-09-22T23:21:21.331Z,10.41
2022-09-22T23:23:49.077Z,10.31
2022-09-22T23:26:16.974Z,10.27
2022-09-22T23:28:45.001Z,10.31
2022-09-22T23:31:18.330Z,10.21
2022-09-22T23:33:46.405Z,10.26
2022-09-22T23:36:17.284Z,10.31
2022-09-22T23:38:44.306Z,10.25
2022-09-22T23:41:11.142Z,10.24
2022-09-22T23:43:38.041Z,10.20
2022-09-22T23:46:05.293Z,10.22
2022-09-22T23:48:32.283Z,10.22
2022-09-22T23:50:59.625Z,10.21
2022-09-22T23:53:30.646Z,10.18
2022-09-22T23:55:57.025Z,10.11
2022-09-22T23:58:23.420Z,10.20
